sensor_id;sensor_type;location;lat;lon;timestamp;temperature;humidity
29849;DHT22;16728;50.832;5.590;2023-10-09T00:00:28;17.80;99.90
29849;DHT22;16728;50.832;5.590;2023-10-09T00:03:43;17.70;99.90
29849;DHT22;16728;50.832;5.590;2023-10-09T00:06:46;17.80;99.90
29849;DHT22;16728;50.832;5.590;2023-10-09T00:10:07;17.70;99.90
29849;DHT22;16728;50.832;5.590;2023-10-09T00:13:48;17.80;99.90
29849;DHT22;16728;50.832;5.590;2023-10-09T00:17:03;17.70;99.90
29849;DHT22;16728;50.832;5.590;2023-10-09T00:20:14;17.70;99.90
29849;DHT22;16728;50.832;5.590;2023-10-09T00:23:32;17.80;99.90
29849;DHT22;16728;50.832;5.590;2023-10-09T00:26:35;17.80;99.90
29849;DHT22;16728;50.832;5.590;2023-10-09T00:29:45;17.80;99.90
29849;DHT22;16728;50.832;5.590;2023-10-09T00:32:47;17.70;99.90
29849;DHT22;16728;50.832;5.590;2023-10-09T00:36:05;17.80;99.90
29849;DHT22;16728;50.832;5.590;2023-10-09T00:39:21;17.80;99.90
29849;DHT22;16728;50.832;5.590;2023-10-09T00:42:38;17.80;99.90
29849;DHT22;16728;50.832;5.590;2023-10-09T00:45:41;17.80;99.90
29849;DHT22;16728;50.832;5.590;2023-10-09T00:48:53;17.80;99.90
29849;DHT22;16728;50.832;5.590;2023-10-09T00:51:55;17.80;99.90
29849;DHT22;16728;50.832;5.590;2023-10-09T00:55:02;17.70;99.90
29849;DHT22;16728;50.832;5.590;2023-10-09T00:58:38;17.70;99.90
29849;DHT22;16728;50.832;5.590;2023-10-09T01:01:41;17.70;99.90
29849;DHT22;16728;50.832;5.590;2023-10-09T01:04:50;17.70;99.90
29849;DHT22;16728;50.832;5.590;2023-10-09T01:07:52;17.70;99.90
29849;DHT22;16728;50.832;5.590;2023-10-09T01:11:00;17.70;99.90
29849;DHT22;16728;50.832;5.590;2023-10-09T01:14:11;17.70;99.90
29849;DHT22;16728;50.832;5.590;2023-10-09T01:17:14;17.70;99.90
29849;DHT22;16728;50.832;5.590;2023-10-09T01:20:32;17.80;99.90
29849;DHT22;16728;50.832;5.590;2023-10-09T01:23:44;17.80;99.90
29849;DHT22;16728;50.832;5.590;2023-10-09T01:27:12;17.80;99.90
29849;DHT22;16728;50.832;5.590;2023-10-09T01:30:18;17.80;99.90
29849;DHT22;16728;50.832;5.590;2023-10-09T01:33:19;17.80;99.90
29849;DHT22;16728;50.832;5.590;2023-10-09T01:36:29;17.70;99.90
29849;DHT22;16728;50.832;5.590;2023-10-09T01:39:34;17.80;99.90
29849;DHT22;16728;50.832;5.590;2023-10-09T01:42:41;17.80;99.90
29849;DHT22;16728;50.832;5.590;2023-10-09T01:45:49;17.80;99.90
29849;DHT22;16728;50.832;5.590;2023-10-09T01:48:53;17.80;99.90
29849;DHT22;16728;50.832;5.590;2023-10-09T01:51:57;17.80;99.90
29849;DHT22;16728;50.832;5.590;2023-10-09T01:55:06;17.80;99.90
29849;DHT22;16728;50.832;5.590;2023-10-09T01:58:11;17.80;99.90
29849;DHT22;16728;50.832;5.590;2023-10-09T02:01:22;17.80;99.90
29849;DHT22;16728;50.832;5.590;2023-10-09T02:04:24;17.80;99.90
29849;DHT22;16728;50.832;5.590;2023-10-09T02:07:26;17.80;99.90
29849;DHT22;16728;50.832;5.590;2023-10-09T02:10:46;17.70;99.90
29849;DHT22;16728;50.832;5.590;2023-10-09T02:13:50;17.70;99.90
29849;DHT22;16728;50.832;5.590;2023-10-09T02:16:55;17.80;99.90
29849;DHT22;16728;50.832;5.590;2023-10-09T02:20:16;17.80;99.90
29849;DHT22;16728;50.832;5.590;2023-10-09T02:23:21;17.80;99.90
29849;DHT22;16728;50.832;5.590;2023-10-09T02:26:42;17.70;99.90
29849;DHT22;16728;50.832;5.590;2023-10-09T02:29:53;17.80;99.90
29849;DHT22;16728;50.832;5.590;2023-10-09T02:32:58;17.70;99.90
29849;DHT22;16728;50.832;5.590;2023-10-09T02:36:11;17.70;99.90
29849;DHT22;16728;50.832;5.590;2023-10-09T02:39:15;17.70;99.90
29849;DHT22;16728;50.832;5.590;2023-10-09T02:42:25;17.70;99.90
29849;DHT22;16728;50.832;5.590;2023-10-09T02:45:38;17.70;99.90
29849;DHT22;16728;50.832;5.590;2023-10-09T02:48:51;17.70;99.90
29849;DHT22;16728;50.832;5.590;2023-10-09T02:51:54;17.80;99.90
29849;DHT22;16728;50.832;5.590;2023-10-09T02:54:56;17.80;99.90
29849;DHT22;16728;50.832;5.590;2023-10-09T03:01:28;17.70;99.90
29849;DHT22;16728;50.832;5.590;2023-10-09T03:04:30;17.70;99.90
29849;DHT22;16728;50.832;5.590;2023-10-09T03:07:33;17.70;99.90
29849;DHT22;16728;50.832;5.590;2023-10-09T03:10:36;17.70;99.90
29849;DHT22;16728;50.832;5.590;2023-10-09T03:13:41;17.80;99.90
29849;DHT22;16728;50.832;5.590;2023-10-09T03:16:44;17.70;99.90
29849;DHT22;16728;50.832;5.590;2023-10-09T03:20:02;17.70;99.90
29849;DHT22;16728;50.832;5.590;2023-10-09T03:23:04;17.70;99.90
29849;DHT22;16728;50.832;5.590;2023-10-09T03:26:11;17.70;99.90
29849;DHT22;16728;50.832;5.590;2023-10-09T03:29:23;17.70;99.90
29849;DHT22;16728;50.832;5.590;2023-10-09T03:32:25;17.70;99.90
29849;DHT22;16728;50.832;5.590;2023-10-09T03:35:36;17.70;99.90
29849;DHT22;16728;50.832;5.590;2023-10-09T03:38:39;17.70;99.90
29849;DHT22;16728;50.832;5.590;2023-10-09T03:41:41;17.70;99.90
29849;DHT22;16728;50.832;5.590;2023-10-09T03:44:43;17.70;99.90
29849;DHT22;16728;50.832;5.590;2023-10-09T03:47:51;17.70;99.90
29849;DHT22;16728;50.832;5.590;2023-10-09T03:50:59;17.60;99.90
29849;DHT22;16728;50.832;5.590;2023-10-09T03:54:10;17.50;99.90
29849;DHT22;16728;50.832;5.590;2023-10-09T03:57:15;17.40;99.90
29849;DHT22;16728;50.832;5.590;2023-10-09T04:00:20;17.40;99.90
29849;DHT22;16728;50.832;5.590;2023-10-09T04:03:29;17.40;99.90
29849;DHT22;16728;50.832;5.590;2023-10-09T04:06:31;17.40;99.90
29849;DHT22;16728;50.832;5.590;2023-10-09T04:09:34;17.40;99.90
29849;DHT22;16728;50.832;5.590;2023-10-09T04:12:41;17.40;99.90
29849;DHT22;16728;50.832;5.590;2023-10-09T04:15:43;17.30;99.90
29849;DHT22;16728;50.832;5.590;2023-10-09T04:18:45;17.20;99.90
29849;DHT22;16728;50.832;5.590;2023-10-09T04:21:49;17.30;99.90
29849;DHT22;16728;50.832;5.590;2023-10-09T04:24:51;17.20;99.90
29849;DHT22;16728;50.832;5.590;2023-10-09T04:27:54;17.20;99.90
29849;DHT22;16728;50.832;5.590;2023-10-09T04:31:12;17.30;99.90
29849;DHT22;16728;50.832;5.590;2023-10-09T04:34:19;17.30;99.90
29849;DHT22;16728;50.832;5.590;2023-10-09T04:37:25;17.20;99.90
29849;DHT22;16728;50.832;5.590;2023-10-09T04:40:38;17.10;99.90
29849;DHT22;16728;50.832;5.590;2023-10-09T04:43:51;17.20;99.90
29849;DHT22;16728;50.832;5.590;2023-10-09T04:46:54;17.20;99.90
29849;DHT22;16728;50.832;5.590;2023-10-09T04:50:16;17.30;99.90
29849;DHT22;16728;50.832;5.590;2023-10-09T04:53:20;17.30;99.90
29849;DHT22;16728;50.832;5.590;2023-10-09T04:56:25;17.40;99.90
29849;DHT22;16728;50.832;5.590;2023-10-09T04:59:33;17.30;99.90
29849;DHT22;16728;50.832;5.590;2023-10-09T05:02:51;17.40;99.90
29849;DHT22;16728;50.832;5.590;2023-10-09T05:05:57;17.40;99.90
29849;DHT22;16728;50.832;5.590;2023-10-09T05:09:01;17.40;99.90
29849;DHT22;16728;50.832;5.590;2023-10-09T05:12:10;17.40;99.90
29849;DHT22;16728;50.832;5.590;2023-10-09T05:15:17;17.40;99.90
29849;DHT22;16728;50.832;5.590;2023-10-09T05:18:19;17.40;99.90
29849;DHT22;16728;50.832;5.590;2023-10-09T05:21:37;17.40;99.90
29849;DHT22;16728;50.832;5.590;2023-10-09T05:24:45;17.30;99.90
29849;DHT22;16728;50.832;5.590;2023-10-09T05:27:48;17.40;99.90
29849;DHT22;16728;50.832;5.590;2023-10-09T05:30:54;17.40;99.90
29849;DHT22;16728;50.832;5.590;2023-10-09T05:34:17;17.30;99.90
29849;DHT22;16728;50.832;5.590;2023-10-09T05:37:21;17.30;99.90
29849;DHT22;16728;50.832;5.590;2023-10-09T05:40:51;17.30;99.90
29849;DHT22;16728;50.832;5.590;2023-10-09T05:44:06;17.30;99.90
29849;DHT22;16728;50.832;5.590;2023-10-09T05:47:27;17.30;99.90
29849;DHT22;16728;50.832;5.590;2023-10-09T05:50:33;17.30;99.90
29849;DHT22;16728;50.832;5.590;2023-10-09T05:53:35;17.30;99.90
29849;DHT22;16728;50.832;5.590;2023-10-09T05:56:46;17.30;99.90
29849;DHT22;16728;50.832;5.590;2023-10-09T06:00:07;17.30;99.90
29849;DHT22;16728;50.832;5.590;2023-10-09T06:03:27;17.30;99.90
29849;DHT22;16728;50.832;5.590;2023-10-09T06:06:50;17.30;99.90
29849;DHT22;16728;50.832;5.590;2023-10-09T06:09:59;17.30;99.90
29849;DHT22;16728;50.832;5.590;2023-10-09T06:13:12;17.30;99.90
29849;DHT22;16728;50.832;5.590;2023-10-09T06:16:38;17.30;99.90
29849;DHT22;16728;50.832;5.590;2023-10-09T06:19:43;17.30;99.90
29849;DHT22;16728;50.832;5.590;2023-10-09T06:22:45;17.30;99.90
29849;DHT22;16728;50.832;5.590;2023-10-09T06:26:00;17.30;99.90
29849;DHT22;16728;50.832;5.590;2023-10-09T06:29:22;17.30;99.90
29849;DHT22;16728;50.832;5.590;2023-10-09T06:32:53;17.30;99.90
29849;DHT22;16728;50.832;5.590;2023-10-09T06:36:21;17.30;99.90
29849;DHT22;16728;50.832;5.590;2023-10-09T06:39:37;17.30;99.90
29849;DHT22;16728;50.832;5.590;2023-10-09T06:42:57;17.30;99.90
29849;DHT22;16728;50.832;5.590;2023-10-09T06:45:59;17.30;99.90
29849;DHT22;16728;50.832;5.590;2023-10-09T06:49:25;17.20;99.90
29849;DHT22;16728;50.832;5.590;2023-10-09T06:52:30;17.30;99.90
29849;DHT22;16728;50.832;5.590;2023-10-09T06:55:52;17.30;99.90
29849;DHT22;16728;50.832;5.590;2023-10-09T06:59:04;17.30;99.90
29849;DHT22;16728;50.832;5.590;2023-10-09T07:02:17;17.30;99.90
29849;DHT22;16728;50.832;5.590;2023-10-09T07:05:29;17.30;99.90
29849;DHT22;16728;50.832;5.590;2023-10-09T07:08:53;17.30;99.90
29849;DHT22;16728;50.832;5.590;2023-10-09T07:12:09;17.30;99.90
29849;DHT22;16728;50.832;5.590;2023-10-09T07:15:15;17.30;99.90
29849;DHT22;16728;50.832;5.590;2023-10-09T07:18:35;17.20;99.90
29849;DHT22;16728;50.832;5.590;2023-10-09T07:21:51;17.30;99.90
29849;DHT22;16728;50.832;5.590;2023-10-09T07:24:56;17.30;99.90
29849;DHT22;16728;50.832;5.590;2023-10-09T07:28:00;17.30;99.90
29849;DHT22;16728;50.832;5.590;2023-10-09T07:31:04;17.40;99.90
29849;DHT22;16728;50.832;5.590;2023-10-09T07:34:11;17.40;99.90
29849;DHT22;16728;50.832;5.590;2023-10-09T07:37:46;17.50;99.90
29849;DHT22;16728;50.832;5.590;2023-10-09T07:40:52;17.50;99.90
29849;DHT22;16728;50.832;5.590;2023-10-09T07:44:07;17.50;99.90
29849;DHT22;16728;50.832;5.590;2023-10-09T07:47:21;17.50;99.90
29849;DHT22;16728;50.832;5.590;2023-10-09T07:50:46;17.60;99.90
29849;DHT22;16728;50.832;5.590;2023-10-09T07:53:51;17.60;99.90
29849;DHT22;16728;50.832;5.590;2023-10-09T07:57:14;17.60;99.90
29849;DHT22;16728;50.832;5.590;2023-10-09T08:00:19;17.60;99.90
29849;DHT22;16728;50.832;5.590;2023-10-09T08:04:00;17.70;99.90
29849;DHT22;16728;50.832;5.590;2023-10-09T08:07:16;17.70;99.90
29849;DHT22;16728;50.832;5.590;2023-10-09T08:10:41;17.70;99.90
29849;DHT22;16728;50.832;5.590;2023-10-09T08:14:06;17.70;99.90
29849;DHT22;16728;50.832;5.590;2023-10-09T08:17:22;17.80;99.90
29849;DHT22;16728;50.832;5.590;2023-10-09T08:20:26;17.80;99.90
29849;DHT22;16728;50.832;5.590;2023-10-09T08:23:28;17.90;99.90
29849;DHT22;16728;50.832;5.590;2023-10-09T08:26:56;17.90;99.90
29849;DHT22;16728;50.832;5.590;2023-10-09T08:30:18;17.90;99.90
29849;DHT22;16728;50.832;5.590;2023-10-09T08:33:20;18.00;99.90
29849;DHT22;16728;50.832;5.590;2023-10-09T08:36:31;18.00;99.90
29849;DHT22;16728;50.832;5.590;2023-10-09T08:39:40;18.00;99.90
29849;DHT22;16728;50.832;5.590;2023-10-09T08:42:52;18.10;99.90
29849;DHT22;16728;50.832;5.590;2023-10-09T08:45:56;18.10;99.90
29849;DHT22;16728;50.832;5.590;2023-10-09T08:49:04;18.10;99.90
29849;DHT22;16728;50.832;5.590;2023-10-09T08:52:07;18.20;99.90
29849;DHT22;16728;50.832;5.590;2023-10-09T08:55:12;18.20;99.90
29849;DHT22;16728;50.832;5.590;2023-10-09T08:58:18;18.20;99.90
29849;DHT22;16728;50.832;5.590;2023-10-09T09:01:23;18.20;99.90
29849;DHT22;16728;50.832;5.590;2023-10-09T09:04:34;18.30;99.90
29849;DHT22;16728;50.832;5.590;2023-10-09T09:07:38;18.30;99.90
29849;DHT22;16728;50.832;5.590;2023-10-09T09:10:44;18.30;99.90
29849;DHT22;16728;50.832;5.590;2023-10-09T09:14:01;18.30;99.90
29849;DHT22;16728;50.832;5.590;2023-10-09T09:17:07;18.40;99.90
29849;DHT22;16728;50.832;5.590;2023-10-09T09:20:24;18.50;99.90
29849;DHT22;16728;50.832;5.590;2023-10-09T09:23:56;18.60;99.90
29849;DHT22;16728;50.832;5.590;2023-10-09T09:27:02;18.70;99.90
29849;DHT22;16728;50.832;5.590;2023-10-09T09:30:28;18.80;99.90
29849;DHT22;16728;50.832;5.590;2023-10-09T09:33:37;18.90;99.90
29849;DHT22;16728;50.832;5.590;2023-10-09T09:36:55;18.90;99.90
29849;DHT22;16728;50.832;5.590;2023-10-09T09:39:59;19.00;99.90
29849;DHT22;16728;50.832;5.590;2023-10-09T09:43:16;19.10;99.90
29849;DHT22;16728;50.832;5.590;2023-10-09T09:46:24;19.20;99.90
29849;DHT22;16728;50.832;5.590;2023-10-09T09:49:38;19.40;99.90
29849;DHT22;16728;50.832;5.590;2023-10-09T09:52:41;19.50;99.90
29849;DHT22;16728;50.832;5.590;2023-10-09T09:55:54;19.60;99.90
29849;DHT22;16728;50.832;5.590;2023-10-09T09:59:02;19.70;99.90
29849;DHT22;16728;50.832;5.590;2023-10-09T10:02:12;19.80;99.90
29849;DHT22;16728;50.832;5.590;2023-10-09T10:05:22;19.90;99.90
29849;DHT22;16728;50.832;5.590;2023-10-09T10:08:29;20.00;99.90
29849;DHT22;16728;50.832;5.590;2023-10-09T10:11:45;20.10;99.90
29849;DHT22;16728;50.832;5.590;2023-10-09T10:14:58;20.20;99.90
29849;DHT22;16728;50.832;5.590;2023-10-09T10:21:14;20.40;99.90
29849;DHT22;16728;50.832;5.590;2023-10-09T10:31:17;20.60;99.90
29849;DHT22;16728;50.832;5.590;2023-10-09T10:34:19;20.60;99.90
29849;DHT22;16728;50.832;5.590;2023-10-09T10:37:38;20.60;99.90
29849;DHT22;16728;50.832;5.590;2023-10-09T10:40:53;20.60;99.90
29849;DHT22;16728;50.832;5.590;2023-10-09T10:44:02;20.60;99.90
29849;DHT22;16728;50.832;5.590;2023-10-09T10:47:27;20.60;99.90
29849;DHT22;16728;50.832;5.590;2023-10-09T10:50:37;20.60;99.90
29849;DHT22;16728;50.832;5.590;2023-10-09T10:53:50;20.60;99.90
29849;DHT22;16728;50.832;5.590;2023-10-09T10:56:54;20.60;99.90
29849;DHT22;16728;50.832;5.590;2023-10-09T10:59:59;20.60;99.90
29849;DHT22;16728;50.832;5.590;2023-10-09T11:03:20;20.60;99.90
29849;DHT22;16728;50.832;5.590;2023-10-09T11:06:51;20.60;99.90
29849;DHT22;16728;50.832;5.590;2023-10-09T11:09:54;20.60;99.90
29849;DHT22;16728;50.832;5.590;2023-10-09T11:13:05;20.50;99.90
29849;DHT22;16728;50.832;5.590;2023-10-09T11:16:10;20.50;99.90
29849;DHT22;16728;50.832;5.590;2023-10-09T11:19:30;20.50;99.90
29849;DHT22;16728;50.832;5.590;2023-10-09T11:22:41;20.60;99.90
29849;DHT22;16728;50.832;5.590;2023-10-09T11:26:04;20.60;99.90
29849;DHT22;16728;50.832;5.590;2023-10-09T11:29:25;20.60;99.90
29849;DHT22;16728;50.832;5.590;2023-10-09T11:32:45;20.60;99.90
29849;DHT22;16728;50.832;5.590;2023-10-09T11:35:56;20.60;99.90
29849;DHT22;16728;50.832;5.590;2023-10-09T11:39:02;20.60;99.90
29849;DHT22;16728;50.832;5.590;2023-10-09T11:42:21;20.60;99.90
29849;DHT22;16728;50.832;5.590;2023-10-09T11:45:42;20.60;99.90
29849;DHT22;16728;50.832;5.590;2023-10-09T11:49:06;20.60;99.90
29849;DHT22;16728;50.832;5.590;2023-10-09T11:52:17;20.60;99.90
29849;DHT22;16728;50.832;5.590;2023-10-09T11:55:39;20.60;99.90
29849;DHT22;16728;50.832;5.590;2023-10-09T11:58:42;20.70;99.90
29849;DHT22;16728;50.832;5.590;2023-10-09T12:01:46;20.70;99.90
29849;DHT22;16728;50.832;5.590;2023-10-09T12:04:55;20.70;99.90
29849;DHT22;16728;50.832;5.590;2023-10-09T12:07:57;20.70;99.90
29849;DHT22;16728;50.832;5.590;2023-10-09T12:11:03;20.70;99.90
29849;DHT22;16728;50.832;5.590;2023-10-09T12:14:05;20.70;99.90
29849;DHT22;16728;50.832;5.590;2023-10-09T12:17:08;20.80;99.90
29849;DHT22;16728;50.832;5.590;2023-10-09T12:20:10;20.80;99.90
29849;DHT22;16728;50.832;5.590;2023-10-09T12:23:23;20.80;99.90
29849;DHT22;16728;50.832;5.590;2023-10-09T12:26:29;20.80;99.90
29849;DHT22;16728;50.832;5.590;2023-10-09T12:29:37;20.90;99.90
29849;DHT22;16728;50.832;5.590;2023-10-09T12:32:39;20.90;99.90
29849;DHT22;16728;50.832;5.590;2023-10-09T12:35:42;20.80;99.90
29849;DHT22;16728;50.832;5.590;2023-10-09T12:38:47;20.90;99.90
29849;DHT22;16728;50.832;5.590;2023-10-09T12:41:56;20.90;99.90
29849;DHT22;16728;50.832;5.590;2023-10-09T12:45:00;20.90;99.90
29849;DHT22;16728;50.832;5.590;2023-10-09T12:48:09;20.90;99.90
29849;DHT22;16728;50.832;5.590;2023-10-09T12:51:13;20.90;99.90
29849;DHT22;16728;50.832;5.590;2023-10-09T12:54:18;20.90;99.90
29849;DHT22;16728;50.832;5.590;2023-10-09T12:57:28;20.90;99.90
29849;DHT22;16728;50.832;5.590;2023-10-09T13:00:35;20.90;99.90
29849;DHT22;16728;50.832;5.590;2023-10-09T13:03:39;20.80;99.90
29849;DHT22;16728;50.832;5.590;2023-10-09T13:06:45;20.80;99.90
29849;DHT22;16728;50.832;5.590;2023-10-09T13:09:48;20.70;99.90
29849;DHT22;16728;50.832;5.590;2023-10-09T13:13:09;20.70;99.90
29849;DHT22;16728;50.832;5.590;2023-10-09T13:16:22;20.70;99.90
29849;DHT22;16728;50.832;5.590;2023-10-09T13:19:25;20.70;99.90
29849;DHT22;16728;50.832;5.590;2023-10-09T13:22:27;20.60;99.90
29849;DHT22;16728;50.832;5.590;2023-10-09T13:25:29;20.60;99.90
29849;DHT22;16728;50.832;5.590;2023-10-09T13:28:41;20.60;99.90
29849;DHT22;16728;50.832;5.590;2023-10-09T13:31:43;20.50;99.90
29849;DHT22;16728;50.832;5.590;2023-10-09T13:34:49;20.60;99.90
29849;DHT22;16728;50.832;5.590;2023-10-09T13:37:51;20.60;99.90
29849;DHT22;16728;50.832;5.590;2023-10-09T13:40:59;20.60;99.90
29849;DHT22;16728;50.832;5.590;2023-10-09T13:44:06;20.60;99.90
29849;DHT22;16728;50.832;5.590;2023-10-09T13:47:08;20.60;99.90
29849;DHT22;16728;50.832;5.590;2023-10-09T13:50:23;20.60;99.90
29849;DHT22;16728;50.832;5.590;2023-10-09T13:53:26;20.60;99.90
29849;DHT22;16728;50.832;5.590;2023-10-09T13:56:28;20.60;99.90
29849;DHT22;16728;50.832;5.590;2023-10-09T13:59:31;20.60;99.90
29849;DHT22;16728;50.832;5.590;2023-10-09T14:02:33;20.60;99.90
29849;DHT22;16728;50.832;5.590;2023-10-09T14:05:35;20.50;99.90
29849;DHT22;16728;50.832;5.590;2023-10-09T14:08:39;20.60;99.90
29849;DHT22;16728;50.832;5.590;2023-10-09T14:11:46;20.60;99.90
29849;DHT22;16728;50.832;5.590;2023-10-09T14:14:48;20.60;99.90
29849;DHT22;16728;50.832;5.590;2023-10-09T14:17:50;20.60;99.90
29849;DHT22;16728;50.832;5.590;2023-10-09T14:21:04;20.60;99.90
29849;DHT22;16728;50.832;5.590;2023-10-09T14:24:07;20.60;99.90
29849;DHT22;16728;50.832;5.590;2023-10-09T14:27:22;20.60;99.90
29849;DHT22;16728;50.832;5.590;2023-10-09T14:30:27;20.70;99.90
29849;DHT22;16728;50.832;5.590;2023-10-09T14:33:33;20.60;99.90
29849;DHT22;16728;50.832;5.590;2023-10-09T14:36:38;20.60;99.90
29849;DHT22;16728;50.832;5.590;2023-10-09T14:39:46;20.60;99.90
29849;DHT22;16728;50.832;5.590;2023-10-09T14:42:51;20.60;99.90
29849;DHT22;16728;50.832;5.590;2023-10-09T14:45:57;20.50;99.90
29849;DHT22;16728;50.832;5.590;2023-10-09T14:48:59;20.50;99.90
29849;DHT22;16728;50.832;5.590;2023-10-09T14:52:06;20.50;99.90
29849;DHT22;16728;50.832;5.590;2023-10-09T14:55:10;20.50;99.90
29849;DHT22;16728;50.832;5.590;2023-10-09T14:58:12;20.50;99.90
29849;DHT22;16728;50.832;5.590;2023-10-09T15:01:14;20.40;99.90
29849;DHT22;16728;50.832;5.590;2023-10-09T15:04:20;20.40;99.90
29849;DHT22;16728;50.832;5.590;2023-10-09T15:07:22;20.40;99.90
29849;DHT22;16728;50.832;5.590;2023-10-09T15:10:51;20.30;99.90
29849;DHT22;16728;50.832;5.590;2023-10-09T15:13:58;20.30;99.90
29849;DHT22;16728;50.832;5.590;2023-10-09T15:17:01;20.30;99.90
29849;DHT22;16728;50.832;5.590;2023-10-09T15:20:05;20.30;99.90
29849;DHT22;16728;50.832;5.590;2023-10-09T15:23:12;20.20;99.90
29849;DHT22;16728;50.832;5.590;2023-10-09T15:26:14;20.10;99.90
29849;DHT22;16728;50.832;5.590;2023-10-09T15:29:19;20.20;99.90
29849;DHT22;16728;50.832;5.590;2023-10-09T15:32:25;20.20;99.90
29849;DHT22;16728;50.832;5.590;2023-10-09T15:35:28;20.20;99.90
29849;DHT22;16728;50.832;5.590;2023-10-09T15:38:35;20.10;99.90
29849;DHT22;16728;50.832;5.590;2023-10-09T15:41:38;20.20;99.90
29849;DHT22;16728;50.832;5.590;2023-10-09T15:44:41;20.20;99.90
29849;DHT22;16728;50.832;5.590;2023-10-09T15:47:43;20.20;99.90
29849;DHT22;16728;50.832;5.590;2023-10-09T15:50:46;20.20;99.90
29849;DHT22;16728;50.832;5.590;2023-10-09T15:53:50;20.20;99.90
29849;DHT22;16728;50.832;5.590;2023-10-09T15:56:53;20.20;99.90
29849;DHT22;16728;50.832;5.590;2023-10-09T16:00:03;20.20;99.90
29849;DHT22;16728;50.832;5.590;2023-10-09T16:03:15;20.20;99.90
29849;DHT22;16728;50.832;5.590;2023-10-09T16:06:17;20.20;99.90
29849;DHT22;16728;50.832;5.590;2023-10-09T16:09:20;20.20;99.90
29849;DHT22;16728;50.832;5.590;2023-10-09T16:12:23;20.20;99.90
29849;DHT22;16728;50.832;5.590;2023-10-09T16:15:27;20.20;99.90
29849;DHT22;16728;50.832;5.590;2023-10-09T16:18:29;20.20;99.90
29849;DHT22;16728;50.832;5.590;2023-10-09T16:21:31;20.10;99.90
29849;DHT22;16728;50.832;5.590;2023-10-09T16:24:33;20.00;99.90
29849;DHT22;16728;50.832;5.590;2023-10-09T16:27:40;20.00;99.90
29849;DHT22;16728;50.832;5.590;2023-10-09T16:30:48;19.90;99.90
29849;DHT22;16728;50.832;5.590;2023-10-09T16:33:50;19.90;99.90
29849;DHT22;16728;50.832;5.590;2023-10-09T16:36:52;19.80;99.90
29849;DHT22;16728;50.832;5.590;2023-10-09T16:39:56;19.80;99.90
29849;DHT22;16728;50.832;5.590;2023-10-09T16:42:59;19.80;99.90
29849;DHT22;16728;50.832;5.590;2023-10-09T16:46:06;19.70;99.90
29849;DHT22;16728;50.832;5.590;2023-10-09T16:49:12;19.60;99.90
29849;DHT22;16728;50.832;5.590;2023-10-09T16:52:20;19.70;99.90
29849;DHT22;16728;50.832;5.590;2023-10-09T16:55:23;19.70;99.90
29849;DHT22;16728;50.832;5.590;2023-10-09T16:58:26;19.70;99.90
29849;DHT22;16728;50.832;5.590;2023-10-09T17:01:28;19.60;99.90
29849;DHT22;16728;50.832;5.590;2023-10-09T17:04:30;19.50;99.90
29849;DHT22;16728;50.832;5.590;2023-10-09T17:07:35;19.40;99.90
29849;DHT22;16728;50.832;5.590;2023-10-09T17:10:40;19.30;99.90
29849;DHT22;16728;50.832;5.590;2023-10-09T17:13:47;19.20;99.90
29849;DHT22;16728;50.832;5.590;2023-10-09T17:16:51;19.10;99.90
29849;DHT22;16728;50.832;5.590;2023-10-09T17:19:54;19.00;99.90
29849;DHT22;16728;50.832;5.590;2023-10-09T17:22:56;18.90;99.90
29849;DHT22;16728;50.832;5.590;2023-10-09T17:26:03;18.90;99.90
29849;DHT22;16728;50.832;5.590;2023-10-09T17:29:05;18.90;99.90
29849;DHT22;16728;50.832;5.590;2023-10-09T17:32:07;18.90;99.90
29849;DHT22;16728;50.832;5.590;2023-10-09T17:35:09;18.90;99.90
29849;DHT22;16728;50.832;5.590;2023-10-09T17:38:12;18.80;99.90
29849;DHT22;16728;50.832;5.590;2023-10-09T17:41:14;18.80;99.90
29849;DHT22;16728;50.832;5.590;2023-10-09T17:44:16;18.80;99.90
29849;DHT22;16728;50.832;5.590;2023-10-09T17:47:20;18.70;99.90
29849;DHT22;16728;50.832;5.590;2023-10-09T17:50:23;18.50;99.90
29849;DHT22;16728;50.832;5.590;2023-10-09T17:53:25;18.60;99.90
29849;DHT22;16728;50.832;5.590;2023-10-09T17:56:30;18.60;99.90
29849;DHT22;16728;50.832;5.590;2023-10-09T17:59:32;18.50;99.90
29849;DHT22;16728;50.832;5.590;2023-10-09T18:02:35;18.20;99.90
29849;DHT22;16728;50.832;5.590;2023-10-09T18:05:38;18.20;99.90
29849;DHT22;16728;50.832;5.590;2023-10-09T18:08:40;18.00;99.90
29849;DHT22;16728;50.832;5.590;2023-10-09T18:11:43;17.90;99.90
29849;DHT22;16728;50.832;5.590;2023-10-09T18:14:50;17.90;99.90
29849;DHT22;16728;50.832;5.590;2023-10-09T18:17:56;17.90;99.90
29849;DHT22;16728;50.832;5.590;2023-10-09T18:20:58;17.70;99.90
29849;DHT22;16728;50.832;5.590;2023-10-09T18:24:00;17.80;99.90
29849;DHT22;16728;50.832;5.590;2023-10-09T18:27:07;17.80;99.90
29849;DHT22;16728;50.832;5.590;2023-10-09T18:30:09;17.70;99.90
29849;DHT22;16728;50.832;5.590;2023-10-09T18:33:13;17.60;99.90
29849;DHT22;16728;50.832;5.590;2023-10-09T18:36:15;17.50;99.90
29849;DHT22;16728;50.832;5.590;2023-10-09T18:39:19;17.40;99.90
29849;DHT22;16728;50.832;5.590;2023-10-09T18:42:24;17.30;99.90
29849;DHT22;16728;50.832;5.590;2023-10-09T18:45:29;17.50;99.90
29849;DHT22;16728;50.832;5.590;2023-10-09T18:48:37;17.50;99.90
29849;DHT22;16728;50.832;5.590;2023-10-09T18:51:40;17.50;99.90
29849;DHT22;16728;50.832;5.590;2023-10-09T18:54:43;17.50;99.90
29849;DHT22;16728;50.832;5.590;2023-10-09T18:57:45;17.40;99.90
29849;DHT22;16728;50.832;5.590;2023-10-09T19:00:49;17.50;99.90
29849;DHT22;16728;50.832;5.590;2023-10-09T19:04:00;17.50;99.90
29849;DHT22;16728;50.832;5.590;2023-10-09T19:07:02;17.40;99.90
29849;DHT22;16728;50.832;5.590;2023-10-09T19:10:04;17.50;99.90
29849;DHT22;16728;50.832;5.590;2023-10-09T19:13:10;17.50;99.90
29849;DHT22;16728;50.832;5.590;2023-10-09T19:16:12;17.40;99.90
29849;DHT22;16728;50.832;5.590;2023-10-09T19:19:14;17.40;99.90
29849;DHT22;16728;50.832;5.590;2023-10-09T19:22:16;17.20;99.90
29849;DHT22;16728;50.832;5.590;2023-10-09T19:25:22;17.10;99.90
29849;DHT22;16728;50.832;5.590;2023-10-09T19:28:32;17.10;99.90
29849;DHT22;16728;50.832;5.590;2023-10-09T19:31:34;17.20;99.90
29849;DHT22;16728;50.832;5.590;2023-10-09T19:34:37;17.20;99.90
29849;DHT22;16728;50.832;5.590;2023-10-09T19:37:40;17.00;99.90
29849;DHT22;16728;50.832;5.590;2023-10-09T19:40:49;17.00;99.90
29849;DHT22;16728;50.832;5.590;2023-10-09T19:43:52;17.00;99.90
29849;DHT22;16728;50.832;5.590;2023-10-09T19:46:55;17.10;99.90
29849;DHT22;16728;50.832;5.590;2023-10-09T19:49:58;17.20;99.90
29849;DHT22;16728;50.832;5.590;2023-10-09T19:53:00;17.20;99.90
29849;DHT22;16728;50.832;5.590;2023-10-09T19:56:05;17.10;99.90
29849;DHT22;16728;50.832;5.590;2023-10-09T19:59:07;17.00;99.90
29849;DHT22;16728;50.832;5.590;2023-10-09T20:02:09;16.90;99.90